Historique des mesures à Cassis (13260), France
Quotidien Résumé Juin 13, 2017 Unités:  Métrique    US   Métrique/US
« Précédent (Jour)
Suivant (Jour) »
Quotidien Hebdomadaire Mensuel Annuel Période au choix
  Maximum: Minimum: Moyenne:
Température: TemperatureC °C 21.8 °C 24.6 °C
Point de rosée: DewpointC °C 18.0 °C 18.9 °C
Humidité: Humidity % 60 % 67 %
Vitesse du vent: 0 km/h 0 km/h 3.5 km/h
Rafales: 0 km/h - -
Vent:- - SSW
Pression: PressurehPa hPa 1009.4 hPa -
Précipitations: 0.0 mm    
Historical Graphs
 
 
Mesures pour : Juin 13, 2017
Heure Temperature Point de rosée Pression Vent Vitesse du vent Rafales Humidité Pluie (par heure) Conditions
TemperatureC °C DewpointC °C PressurehPa hPa Calm     Humidity % HourlyPrecipMM mm SoftwareType W/m2
00:10 23.6 °C 19.6 °C 1011.1 hPa Calm     78 % 0.0 mm open2300-1.11 W/m2
01:10 23.4 °C 19.6 °C 1010.7 hPa Calm     79 % 0.0 mm open2300-1.11 W/m2
02:10 22.9 °C 18.9 °C 1010.0 hPa Calm     78 % 0.0 mm open2300-1.11 W/m2
03:10 22.6 °C 18.6 °C 1009.7 hPa Calm     78 % 0.0 mm open2300-1.11 W/m2
04:10 22.2 °C 18.4 °C 1009.4 hPa Calm     79 % 0.0 mm open2300-1.11 W/m2
05:11 22.1 °C 18.3 °C 1009.4 hPa Calm     79 % 0.0 mm open2300-1.11 W/m2
06:10 21.8 °C 18.0 °C 1009.7 hPa Calm     79 % 0.0 mm open2300-1.11 W/m2
07:10 22.1 °C 18.5 °C 1010.0 hPa Calm     80 % 0.0 mm open2300-1.11 W/m2
08:10 24.4 °C 19.9 °C 1010.4 hPa Calm     76 % 0.0 mm open2300-1.11 W/m2
09:10 24.8 °C 19.8 °C 1010.7 hPa WSW 12.2 km/h 12.2 km/h 74 % 0.0 mm open2300-1.11 W/m2
10:11 26.2 °C 20.7 °C 1011.1 hPa SSW 8.9 km/h 8.9 km/h 72 % 0.0 mm open2300-1.11 W/m2
11:10 28.3 °C 21.3 °C 1011.4 hPa WNW 8 km/h 8 km/h 66 % 0.0 mm open2300-1.11 W/m2
12:10 28.8 °C 21.3 °C 1011.7 hPa West 6.9 km/h 9.8 km/h 64 % 0.0 mm open2300-1.11 W/m2
13:10 29.3 °C 21.3 °C 1011.4 hPa Calm   11.6 km/h 62 % 0.0 mm open2300-1.11 W/m2
14:10 29.2 °C 20.9 °C 1011.7 hPa South 10.9 km/h 14.5 km/h 61 % 0.0 mm open2300-1.11 W/m2
15:11 29.3 °C 21.0 °C 1011.4 hPa West 9.3 km/h 9.3 km/h 61 % 0.0 mm open2300-1.11 W/m2
16:10 29.1 °C 20.6 °C 1011.1 hPa SW 10.9 km/h 10.9 km/h 60 % 0.0 mm open2300-1.11 W/m2
17:10 28.9 °C 20.4 °C 1010.7 hPa ESE 6.4 km/h 9.3 km/h 60 % 0.0 mm open2300-1.11 W/m2
18:10 28.4 °C 20.2 °C 1010.4 hPa SE 6.4 km/h 7.6 km/h 61 % 0.0 mm open2300-1.11 W/m2
19:10 27.5 °C 19.3 °C 1009.7 hPa South 3.4 km/h 5.1 km/h 61 % 0.0 mm open2300-1.11 W/m2
20:10 26.7 °C 19.1 °C 1009.4 hPa SE 3.4 km/h 5.1 km/h 63 % 0.0 mm open2300-1.11 W/m2
21:10 25.8 °C 19.4 °C 1010.4 hPa Calm     68 % 0.0 mm open2300-1.11 W/m2
22:11 24.8 °C 19.6 °C 1010.7 hPa Calm     73 % 0.0 mm open2300-1.11 W/m2
23:10 23.6 °C 18.1 °C 1011.4 hPa Calm     71 % 0.0 mm open2300-1.11 W/m2
Observations météo à CASSIS
WU-History script by Weather Underground - 1 mb